Durham, NC

8:45 AM EST on March 06, 2015 (GMT -0500)
Raleigh-Durham International | Change Station
CLOSE
Current Station
Airport
Location: Raleigh-Durham Airport,
Elevation: 436 ft
Nearby Weather Stations
Active Advisory: Special Statement

Elev 436 ft 35.89 °N, 78.78 °W | Updated 54 minutes ago

Partly Cloudy
Partly Cloudy
24 °F
Feels Like 13 °F
N
12
Wind Variable Wind from NNE
Gusts 16 mph

Today
High -- | Low -- °F
--% Chance of Precip.
Yesterday
High -- | Low -- °F
Precip. -- in
6:39 AM 6:14 PM
Waxing Gibbous, 99% visible
Pressure 30.52 in
Visibility 10.0 miles
Clouds Few 2200 ft
Scattered Clouds 7000 ft
Scattered Clouds 25000 ft
Windchill 13 °F
Dew Point 13 °F
Humidity 62%
Rainfall 0.00 in
Snow Depth Not available.
UV 1 out of 12
Pollen 3.70 out of 12
Air Quality Not available.
Flu Activity Not available.
METAR KRDU 061251Z 03010G14KT 10SM FEW022 SCT070 SCT250 M04/M11 A3050 RMK AO2 SLP334 T10441106

More Conditions Fewer Conditions

Pressure 30.52 in
Visibility 10.0 miles
Clouds Few 2200 ft
Scattered Clouds 7000 ft
Scattered Clouds 25000 ft
Windchill 13 °F
Dew Point 13 °F
Humidity 62%
Rainfall 0.00 in
Snow Depth Not available.
UV 1 out of 12
Pollen 3.70 out of 12
Air Quality Not available.
Flu Activity Not available.
METAR KRDU 061251Z 03010G14KT 10SM FEW022 SCT070 SCT250 M04/M11 A3050 RMK AO2 SLP334 T10441106

More Conditions Fewer Conditions

10-Day Weather Forecast

Almanac

Astronomy

Mar. 06, 2015 Rise Set
Actual Time
Civil Twilight
Nautical Twilight
Astronomical Twilight
Moon
Length of Visible Light
Length of Day
Tomorrow will be .
, % of the Moon is Illuminated

Today's Extremes

State Highs State Lows

Community

WunderPhotos

Upload Photos

1,803,266 photos uploaded!

WunderBlogs® & News

Nearby

Air Quality

  Air Quality AQ Index Pollutant
Not available.

Snow Depth

Station Depth Elevation

Earthquake Activity

City Distance Mag. Time & Date
Minimum magnitude displayed is 2.5.

Coastal Water Temperatures

Place Temperature

Nearby Weather Stations

Special Statement
Statement as of 8:27 AM EST on March 06, 2015

... Isolated patches of black ice will persist this morning...

Temperatures will remain below freezing across much of central
North Carolina through mid morning. While most roads are dry...
a few patches of ice will linger in some areas including secondary
roads and Highway onramps and offramps through 10 am across the
south and until around 11 am in the north. Motorists should
continue to use extra caution this morning and watch carefully for
icy patches on roads.


Gih